sensor_id;sensor_type;location;lat;lon;timestamp;pressure;altitude;pressure_sealevel;temperature;humidity
37690;BME280;23527;48.150;11.610;2022-08-02T00:00:24;95966.09;;;26.39;45.08
37690;BME280;23527;48.150;11.610;2022-08-02T00:03:25;95965.84;;;26.36;44.75
37690;BME280;23527;48.150;11.610;2022-08-02T00:06:25;95973.56;;;26.37;44.39
37690;BME280;23527;48.150;11.610;2022-08-02T00:09:25;95972.25;;;26.40;44.92
37690;BME280;23527;48.150;11.610;2022-08-02T00:12:25;95986.13;;;26.37;45.17
37690;BME280;23527;48.150;11.610;2022-08-02T00:15:26;95982.13;;;26.34;45.06
37690;BME280;23527;48.150;11.610;2022-08-02T00:18:26;95990.41;;;26.38;45.65
37690;BME280;23527;48.150;11.610;2022-08-02T00:21:26;95993.88;;;26.38;44.98
37690;BME280;23527;48.150;11.610;2022-08-02T00:24:27;95994.69;;;26.39;45.34
37690;BME280;23527;48.150;11.610;2022-08-02T00:27:27;95995.47;;;26.34;45.42
37690;BME280;23527;48.150;11.610;2022-08-02T00:30:27;96004.56;;;26.33;44.60
37690;BME280;23527;48.150;11.610;2022-08-02T00:33:27;95997.22;;;26.18;43.71
37690;BME280;23527;48.150;11.610;2022-08-02T00:36:28;96002.88;;;26.22;45.30
37690;BME280;23527;48.150;11.610;2022-08-02T00:39:28;95993.75;;;26.18;43.84
37690;BME280;23527;48.150;11.610;2022-08-02T00:42:28;95989.75;;;26.20;44.84
37690;BME280;23527;48.150;11.610;2022-08-02T00:45:29;95990.03;;;26.24;44.98
37690;BME280;23527;48.150;11.610;2022-08-02T00:48:29;95987.91;;;26.26;44.43
37690;BME280;23527;48.150;11.610;2022-08-02T00:51:30;95986.78;;;26.17;43.27
37690;BME280;23527;48.150;11.610;2022-08-02T00:54:30;95983.06;;;26.18;44.41
37690;BME280;23527;48.150;11.610;2022-08-02T00:57:30;95981.97;;;26.14;43.61
37690;BME280;23527;48.150;11.610;2022-08-02T01:00:31;95980.84;;;26.05;44.64
37690;BME280;23527;48.150;11.610;2022-08-02T01:03:31;95980.84;;;26.05;44.82
37690;BME280;23527;48.150;11.610;2022-08-02T01:06:31;95981.66;;;26.05;45.18
37690;BME280;23527;48.150;11.610;2022-08-02T01:09:32;95983.81;;;26.08;45.20
37690;BME280;23527;48.150;11.610;2022-08-02T01:12:32;95982.22;;;26.07;45.05
37690;BME280;23527;48.150;11.610;2022-08-02T01:15:34;95988.09;;;26.09;43.91
37690;BME280;23527;48.150;11.610;2022-08-02T01:18:40;95991.84;;;26.13;43.92
37690;BME280;23527;48.150;11.610;2022-08-02T01:21:49;95992.88;;;26.07;43.42
37690;BME280;23527;48.150;11.610;2022-08-02T01:31:25;95984.53;;;25.99;45.00
37690;BME280;23527;48.150;11.610;2022-08-02T01:34:31;95994.69;;;25.97;45.18
37690;BME280;23527;48.150;11.610;2022-08-02T01:40:36;95979.44;;;25.97;45.30
37690;BME280;23527;48.150;11.610;2022-08-02T01:43:39;95977.50;;;25.82;44.64
37690;BME280;23527;48.150;11.610;2022-08-02T01:46:41;95976.72;;;25.87;44.52
37690;BME280;23527;48.150;11.610;2022-08-02T01:49:42;95982.63;;;25.89;44.72
37690;BME280;23527;48.150;11.610;2022-08-02T01:52:48;95978.34;;;25.88;45.37
37690;BME280;23527;48.150;11.610;2022-08-02T01:55:50;95970.88;;;25.90;45.21
37690;BME280;23527;48.150;11.610;2022-08-02T01:58:52;95971.19;;;25.94;45.17
37690;BME280;23527;48.150;11.610;2022-08-02T02:01:53;95969.31;;;25.94;45.44
37690;BME280;23527;48.150;11.610;2022-08-02T02:04:54;95969.31;;;25.94;45.41
37690;BME280;23527;48.150;11.610;2022-08-02T02:07:57;95966.84;;;25.87;45.57
37690;BME280;23527;48.150;11.610;2022-08-02T02:10:58;95971.38;;;25.87;45.70
37690;BME280;23527;48.150;11.610;2022-08-02T02:13:59;95965.28;;;25.91;45.31
37690;BME280;23527;48.150;11.610;2022-08-02T02:17:00;95961.25;;;25.89;45.22
37690;BME280;23527;48.150;11.610;2022-08-02T02:20:01;95960.16;;;25.85;45.30
37690;BME280;23527;48.150;11.610;2022-08-02T02:23:01;95958.84;;;25.87;45.34
37690;BME280;23527;48.150;11.610;2022-08-02T02:26:02;95964.69;;;25.84;45.55
37690;BME280;23527;48.150;11.610;2022-08-02T02:29:04;95966.28;;;25.85;45.10
37690;BME280;23527;48.150;11.610;2022-08-02T02:32:07;95962.31;;;25.88;45.86
37690;BME280;23527;48.150;11.610;2022-08-02T02:35:08;95964.78;;;25.95;45.53
37690;BME280;23527;48.150;11.610;2022-08-02T02:38:10;95963.16;;;25.94;45.92
37690;BME280;23527;48.150;11.610;2022-08-02T02:41:12;95960.50;;;25.99;45.46
37690;BME280;23527;48.150;11.610;2022-08-02T02:44:13;95965.59;;;26.00;45.01
37690;BME280;23527;48.150;11.610;2022-08-02T02:47:15;95969.88;;;25.96;45.40
37690;BME280;23527;48.150;11.610;2022-08-02T02:50:17;95970.38;;;25.93;45.81
37690;BME280;23527;48.150;11.610;2022-08-02T02:53:18;95973.53;;;25.90;46.00
37690;BME280;23527;48.150;11.610;2022-08-02T02:56:19;95971.13;;;25.88;45.60
37690;BME280;23527;48.150;11.610;2022-08-02T02:59:19;95970.31;;;25.88;45.64
37690;BME280;23527;48.150;11.610;2022-08-02T03:02:20;95973.50;;;25.85;45.28
37690;BME280;23527;48.150;11.610;2022-08-02T03:05:20;95974.03;;;25.82;45.48
37690;BME280;23527;48.150;11.610;2022-08-02T03:08:20;95978.88;;;25.90;45.14
37690;BME280;23527;48.150;11.610;2022-08-02T03:11:21;95981.56;;;25.90;45.44
37690;BME280;23527;48.150;11.610;2022-08-02T03:14:22;95972.19;;;25.87;45.57
37690;BME280;23527;48.150;11.610;2022-08-02T03:17:23;95971.88;;;25.84;45.31
37690;BME280;23527;48.150;11.610;2022-08-02T03:20:23;95974.56;;;25.84;45.53
37690;BME280;23527;48.150;11.610;2022-08-02T03:23:23;95981.25;;;25.81;45.62
37690;BME280;23527;48.150;11.610;2022-08-02T03:26:23;95980.69;;;25.79;45.36
37690;BME280;23527;48.150;11.610;2022-08-02T03:29:23;95988.94;;;25.78;45.61
37690;BME280;23527;48.150;11.610;2022-08-02T03:32:24;95990.50;;;25.74;45.58
37690;BME280;23527;48.150;11.610;2022-08-02T03:35:24;95988.91;;;25.73;45.82
37690;BME280;23527;48.150;11.610;2022-08-02T03:38:24;95987.53;;;25.70;46.11
37690;BME280;23527;48.150;11.610;2022-08-02T03:41:25;95988.88;;;25.68;46.25
37690;BME280;23527;48.150;11.610;2022-08-02T03:44:27;95980.56;;;25.64;45.63
37690;BME280;23527;48.150;11.610;2022-08-02T03:47:27;95984.78;;;25.60;45.92
37690;BME280;23527;48.150;11.610;2022-08-02T03:50:28;95987.44;;;25.60;45.91
37690;BME280;23527;48.150;11.610;2022-08-02T03:53:30;95992.78;;;25.60;46.03
37690;BME280;23527;48.150;11.610;2022-08-02T03:56:31;95987.69;;;25.58;46.01
37690;BME280;23527;48.150;11.610;2022-08-02T03:59:38;95986.38;;;25.56;46.27
37690;BME280;23527;48.150;11.610;2022-08-02T04:02:39;95997.56;;;25.58;46.46
37690;BME280;23527;48.150;11.610;2022-08-02T04:05:39;95992.56;;;25.62;46.59
37690;BME280;23527;48.150;11.610;2022-08-02T04:08:39;95997.31;;;25.60;46.38
37690;BME280;23527;48.150;11.610;2022-08-02T04:11:40;96004.03;;;25.62;46.48
37690;BME280;23527;48.150;11.610;2022-08-02T04:14:40;96005.66;;;25.63;46.70
37690;BME280;23527;48.150;11.610;2022-08-02T04:17:42;95998.19;;;25.65;46.54
37690;BME280;23527;48.150;11.610;2022-08-02T04:20:42;95999.00;;;25.66;46.41
37690;BME280;23527;48.150;11.610;2022-08-02T04:23:44;96005.16;;;25.66;46.49
37690;BME280;23527;48.150;11.610;2022-08-02T04:26:46;96001.94;;;25.64;45.20
37690;BME280;23527;48.150;11.610;2022-08-02T04:29:47;96007.81;;;25.66;46.30
37690;BME280;23527;48.150;11.610;2022-08-02T04:32:48;96015.03;;;25.71;46.57
37690;BME280;23527;48.150;11.610;2022-08-02T04:35:48;96020.38;;;25.71;46.48
37690;BME280;23527;48.150;11.610;2022-08-02T04:38:48;96020.38;;;25.71;46.72
37690;BME280;23527;48.150;11.610;2022-08-02T04:41:48;96026.81;;;25.70;45.89
37690;BME280;23527;48.150;11.610;2022-08-02T04:44:49;96026.28;;;25.73;46.77
37690;BME280;23527;48.150;11.610;2022-08-02T04:47:50;96038.56;;;25.74;46.55
37690;BME280;23527;48.150;11.610;2022-08-02T04:50:50;96034.84;;;25.75;45.47
37690;BME280;23527;48.150;11.610;2022-08-02T04:53:50;96048.22;;;25.80;46.05
37690;BME280;23527;48.150;11.610;2022-08-02T04:56:51;96045.56;;;25.80;46.69
37690;BME280;23527;48.150;11.610;2022-08-02T04:59:51;96047.97;;;25.81;46.31
37690;BME280;23527;48.150;11.610;2022-08-02T05:02:51;96050.13;;;25.84;46.59
37690;BME280;23527;48.150;11.610;2022-08-02T05:05:51;96045.59;;;25.85;46.63
37690;BME280;23527;48.150;11.610;2022-08-02T05:08:52;96039.19;;;25.86;46.61
37690;BME280;23527;48.150;11.610;2022-08-02T05:11:52;96031.97;;;25.86;46.80
37690;BME280;23527;48.150;11.610;2022-08-02T05:14:52;96034.41;;;25.88;46.72
37690;BME280;23527;48.150;11.610;2022-08-02T05:17:52;96040.84;;;25.92;46.91
37690;BME280;23527;48.150;11.610;2022-08-02T05:20:53;96038.19;;;25.97;46.78
37690;BME280;23527;48.150;11.610;2022-08-02T05:23:53;96035.53;;;25.97;46.94
37690;BME280;23527;48.150;11.610;2022-08-02T05:26:53;96031.78;;;25.98;46.71
37690;BME280;23527;48.150;11.610;2022-08-02T05:29:53;96034.47;;;25.98;46.99
37690;BME280;23527;48.150;11.610;2022-08-02T05:32:54;96038.75;;;25.99;46.83
37690;BME280;23527;48.150;11.610;2022-08-02T05:35:54;96042.28;;;26.05;46.50
37690;BME280;23527;48.150;11.610;2022-08-02T05:38:55;96035.09;;;26.10;47.15
37690;BME280;23527;48.150;11.610;2022-08-02T05:41:55;96047.97;;;26.18;46.40
37690;BME280;23527;48.150;11.610;2022-08-02T05:44:55;96042.94;;;26.27;46.59
37690;BME280;23527;48.150;11.610;2022-08-02T05:47:56;96044.13;;;26.36;45.87
37690;BME280;23527;48.150;11.610;2022-08-02T05:50:59;96051.09;;;26.42;45.98
37690;BME280;23527;48.150;11.610;2022-08-02T05:54:05;96054.06;;;26.46;45.76
37690;BME280;23527;48.150;11.610;2022-08-02T06:00:31;96055.13;;;26.45;45.94
37690;BME280;23527;48.150;11.610;2022-08-02T06:03:35;96060.75;;;26.48;46.25
37690;BME280;23527;48.150;11.610;2022-08-02T06:06:37;96056.22;;;26.54;46.35
37690;BME280;23527;48.150;11.610;2022-08-02T06:09:42;96055.75;;;26.62;45.98
37690;BME280;23527;48.150;11.610;2022-08-02T06:12:50;96059.00;;;26.74;44.06
37690;BME280;23527;48.150;11.610;2022-08-02T06:15:51;96056.19;;;26.96;43.86
37690;BME280;23527;48.150;11.610;2022-08-02T06:18:52;96063.97;;;27.03;41.52
37690;BME280;23527;48.150;11.610;2022-08-02T06:21:52;96059.94;;;27.05;40.71
37690;BME280;23527;48.150;11.610;2022-08-02T06:24:53;96066.13;;;27.11;43.47
37690;BME280;23527;48.150;11.610;2022-08-02T06:27:55;96067.22;;;27.15;42.98
37690;BME280;23527;48.150;11.610;2022-08-02T06:30:56;96064.00;;;27.13;40.67
37690;BME280;23527;48.150;11.610;2022-08-02T06:33:56;96072.03;;;27.13;41.57
37690;BME280;23527;48.150;11.610;2022-08-02T06:37:03;96068.81;;;27.11;43.01
37690;BME280;23527;48.150;11.610;2022-08-02T06:43:17;96067.78;;;27.32;42.57
37690;BME280;23527;48.150;11.610;2022-08-02T06:46:18;96064.84;;;27.39;42.63
37690;BME280;23527;48.150;11.610;2022-08-02T06:49:18;96060.91;;;27.56;40.23
37690;BME280;23527;48.150;11.610;2022-08-02T06:52:19;96055.03;;;27.70;41.57
37690;BME280;23527;48.150;11.610;2022-08-02T06:55:19;96062.53;;;27.83;38.96
37690;BME280;23527;48.150;11.610;2022-08-02T06:58:19;96051.53;;;27.99;40.84
37690;BME280;23527;48.150;11.610;2022-08-02T07:01:19;96055.53;;;27.97;41.87
37690;BME280;23527;48.150;11.610;2022-08-02T07:04:20;96057.16;;;27.88;39.50
37690;BME280;23527;48.150;11.610;2022-08-02T07:07:20;96058.25;;;27.92;39.78
37690;BME280;23527;48.150;11.610;2022-08-02T07:10:20;96052.06;;;28.01;40.46
37690;BME280;23527;48.150;11.610;2022-08-02T07:13:20;96049.69;;;28.20;39.01
37690;BME280;23527;48.150;11.610;2022-08-02T07:16:21;96048.56;;;28.36;38.69
37690;BME280;23527;48.150;11.610;2022-08-02T07:19:21;96054.72;;;28.47;39.02
37690;BME280;23527;48.150;11.610;2022-08-02T07:22:21;96049.81;;;28.69;38.92
37690;BME280;23527;48.150;11.610;2022-08-02T07:25:23;96048.66;;;28.96;38.98
37690;BME280;23527;48.150;11.610;2022-08-02T07:28:23;96050.75;;;29.14;37.67
37690;BME280;23527;48.150;11.610;2022-08-02T07:31:23;96045.56;;;29.28;37.03
37690;BME280;23527;48.150;11.610;2022-08-02T07:34:23;96046.66;;;29.27;36.48
37690;BME280;23527;48.150;11.610;2022-08-02T07:37:25;96038.00;;;29.30;36.22
37690;BME280;23527;48.150;11.610;2022-08-02T07:40:25;96037.13;;;29.50;37.89
37690;BME280;23527;48.150;11.610;2022-08-02T07:43:26;96043.47;;;29.64;37.27
37690;BME280;23527;48.150;11.610;2022-08-02T07:46:26;96042.03;;;29.76;35.12
37690;BME280;23527;48.150;11.610;2022-08-02T07:49:27;96040.06;;;29.87;35.73
37690;BME280;23527;48.150;11.610;2022-08-02T07:52:27;96026.38;;;29.84;36.56
37690;BME280;23527;48.150;11.610;2022-08-02T07:55:28;96025.50;;;29.59;35.01
37690;BME280;23527;48.150;11.610;2022-08-02T07:58:28;96029.88;;;29.50;36.23
37690;BME280;23527;48.150;11.610;2022-08-02T08:01:28;96029.28;;;29.58;35.75
37690;BME280;23527;48.150;11.610;2022-08-02T08:04:28;96035.16;;;29.65;36.92
37690;BME280;23527;48.150;11.610;2022-08-02T08:07:29;96030.66;;;29.90;35.40
37690;BME280;23527;48.150;11.610;2022-08-02T08:10:29;96027.47;;;30.17;35.12
37690;BME280;23527;48.150;11.610;2022-08-02T08:13:30;96025.97;;;30.34;34.99
37690;BME280;23527;48.150;11.610;2022-08-02T08:16:30;96023.59;;;30.57;34.43
37690;BME280;23527;48.150;11.610;2022-08-02T08:19:30;96021.69;;;30.81;33.08
37690;BME280;23527;48.150;11.610;2022-08-02T08:22:30;96025.16;;;30.81;32.57
37690;BME280;23527;48.150;11.610;2022-08-02T08:25:31;96021.16;;;30.79;35.37
37690;BME280;23527;48.150;11.610;2022-08-02T08:28:31;96019.25;;;30.61;33.31
37690;BME280;23527;48.150;11.610;2022-08-02T08:31:34;96019.75;;;30.63;34.32
37690;BME280;23527;48.150;11.610;2022-08-02T08:34:34;96012.09;;;30.75;34.07
37690;BME280;23527;48.150;11.610;2022-08-02T08:37:35;96014.56;;;30.90;34.99
37690;BME280;23527;48.150;11.610;2022-08-02T08:40:35;96018.81;;;30.96;32.28
37690;BME280;23527;48.150;11.610;2022-08-02T08:43:36;96014.38;;;31.05;33.11
37690;BME280;23527;48.150;11.610;2022-08-02T08:46:36;96019.72;;;31.10;32.00
37690;BME280;23527;48.150;11.610;2022-08-02T08:49:39;96015.84;;;31.16;31.75
37690;BME280;23527;48.150;11.610;2022-08-02T08:52:52;96011.72;;;31.24;32.60
37690;BME280;23527;48.150;11.610;2022-08-02T08:55:53;96012.53;;;31.25;33.42
37690;BME280;23527;48.150;11.610;2022-08-02T08:58:56;96007.84;;;31.30;33.28
37690;BME280;23527;48.150;11.610;2022-08-02T09:01:56;96010.13;;;31.42;32.51
37690;BME280;23527;48.150;11.610;2022-08-02T09:04:57;96009.81;;;31.43;32.00
37690;BME280;23527;48.150;11.610;2022-08-02T09:07:57;96006.63;;;31.41;30.52
37690;BME280;23527;48.150;11.610;2022-08-02T09:10:58;96008.06;;;31.34;31.57
37690;BME280;23527;48.150;11.610;2022-08-02T09:13:58;96010.13;;;31.23;31.03
37690;BME280;23527;48.150;11.610;2022-08-02T09:17:06;96015.84;;;31.16;31.55
37690;BME280;23527;48.150;11.610;2022-08-02T09:20:07;96004.81;;;31.18;30.98
37690;BME280;23527;48.150;11.610;2022-08-02T09:23:08;96014.94;;;31.26;30.63
37690;BME280;23527;48.150;11.610;2022-08-02T09:26:10;96023.19;;;31.30;31.58
37690;BME280;23527;48.150;11.610;2022-08-02T09:29:11;96023.59;;;31.23;29.64
37690;BME280;23527;48.150;11.610;2022-08-02T09:32:11;96022.84;;;31.17;30.20
37690;BME280;23527;48.150;11.610;2022-08-02T09:35:11;96027.75;;;31.15;31.16
37690;BME280;23527;48.150;11.610;2022-08-02T09:38:12;96029.72;;;31.05;30.66
37690;BME280;23527;48.150;11.610;2022-08-02T09:41:19;96030.81;;;31.04;29.70
37690;BME280;23527;48.150;11.610;2022-08-02T09:44:20;96030.81;;;31.04;30.05
37690;BME280;23527;48.150;11.610;2022-08-02T09:47:21;96024.56;;;31.08;29.97
37690;BME280;23527;48.150;11.610;2022-08-02T09:50:22;96028.16;;;31.23;30.44
37690;BME280;23527;48.150;11.610;2022-08-02T09:53:22;96030.13;;;31.36;30.56
37690;BME280;23527;48.150;11.610;2022-08-02T09:56:23;96024.53;;;31.32;29.79
37690;BME280;23527;48.150;11.610;2022-08-02T09:59:24;96016.72;;;31.31;30.95
37690;BME280;23527;48.150;11.610;2022-08-02T10:02:24;96022.44;;;31.29;30.45
37690;BME280;23527;48.150;11.610;2022-08-02T10:05:28;96019.94;;;31.33;31.00
37690;BME280;23527;48.150;11.610;2022-08-02T10:08:29;96017.59;;;31.45;31.07
37690;BME280;23527;48.150;11.610;2022-08-02T10:11:30;96018.56;;;31.54;30.69
37690;BME280;23527;48.150;11.610;2022-08-02T10:14:32;96011.19;;;31.60;29.78
37690;BME280;23527;48.150;11.610;2022-08-02T10:17:32;96013.84;;;31.65;30.60
37690;BME280;23527;48.150;11.610;2022-08-02T10:20:36;96015.72;;;31.64;30.16
37690;BME280;23527;48.150;11.610;2022-08-02T10:23:38;96019.44;;;31.49;30.81
37690;BME280;23527;48.150;11.610;2022-08-02T10:26:41;96017.75;;;31.53;31.69
37690;BME280;23527;48.150;11.610;2022-08-02T10:29:42;96018.97;;;31.61;30.60
37690;BME280;23527;48.150;11.610;2022-08-02T10:32:44;96016.66;;;31.73;31.13
37690;BME280;23527;48.150;11.610;2022-08-02T10:35:46;96007.91;;;31.81;29.91
37690;BME280;23527;48.150;11.610;2022-08-02T10:38:49;96004.53;;;31.90;30.92
37690;BME280;23527;48.150;11.610;2022-08-02T10:41:50;96008.16;;;31.99;29.58
37690;BME280;23527;48.150;11.610;2022-08-02T10:45:01;95997.06;;;32.00;29.88
37690;BME280;23527;48.150;11.610;2022-08-02T10:48:08;95990.22;;;32.08;29.93
37690;BME280;23527;48.150;11.610;2022-08-02T10:51:08;95991.34;;;32.20;29.98
37690;BME280;23527;48.150;11.610;2022-08-02T10:54:09;95993.34;;;32.29;30.14
37690;BME280;23527;48.150;11.610;2022-08-02T10:57:13;95990.28;;;32.35;28.10
37690;BME280;23527;48.150;11.610;2022-08-02T11:03:39;95979.50;;;32.35;28.17
37690;BME280;23527;48.150;11.610;2022-08-02T11:09:58;95976.03;;;32.16;29.25
37690;BME280;23527;48.150;11.610;2022-08-02T11:13:19;95983.03;;;32.17;29.58
37690;BME280;23527;48.150;11.610;2022-08-02T11:16:19;95972.00;;;32.32;30.14
37690;BME280;23527;48.150;11.610;2022-08-02T11:19:20;95965.00;;;32.45;29.72
37690;BME280;23527;48.150;11.610;2022-08-02T11:22:20;95951.81;;;32.57;29.79
37690;BME280;23527;48.150;11.610;2022-08-02T11:28:21;95961.06;;;32.65;30.52
37690;BME280;23527;48.150;11.610;2022-08-02T11:31:21;95952.19;;;32.50;29.74
37690;BME280;23527;48.150;11.610;2022-08-02T11:34:23;95951.50;;;32.31;30.20
37690;BME280;23527;48.150;11.610;2022-08-02T11:37:30;95954.25;;;32.12;29.29
37690;BME280;23527;48.150;11.610;2022-08-02T11:40:35;95954.66;;;32.06;30.53
37690;BME280;23527;48.150;11.610;2022-08-02T11:43:36;95944.31;;;32.27;30.94
37690;BME280;23527;48.150;11.610;2022-08-02T11:46:37;95936.50;;;32.52;30.18
37690;BME280;23527;48.150;11.610;2022-08-02T11:49:37;95942.81;;;32.75;28.17
37690;BME280;23527;48.150;11.610;2022-08-02T11:52:38;95943.66;;;32.98;28.40
37690;BME280;23527;48.150;11.610;2022-08-02T11:55:38;95941.91;;;33.16;29.09
37690;BME280;23527;48.150;11.610;2022-08-02T11:58:38;95947.16;;;33.35;27.67
37690;BME280;23527;48.150;11.610;2022-08-02T12:01:38;95942.16;;;33.42;27.50
37690;BME280;23527;48.150;11.610;2022-08-02T12:04:39;95950.25;;;33.64;29.22
37690;BME280;23527;48.150;11.610;2022-08-02T12:07:39;95947.53;;;33.86;27.38
37690;BME280;23527;48.150;11.610;2022-08-02T12:10:46;95948.63;;;34.08;25.52
37690;BME280;23527;48.150;11.610;2022-08-02T12:13:46;95954.09;;;34.25;25.26
37690;BME280;23527;48.150;11.610;2022-08-02T12:16:47;95944.16;;;34.34;25.70
37690;BME280;23527;48.150;11.610;2022-08-02T12:20:06;95944.03;;;34.48;25.00
37690;BME280;23527;48.150;11.610;2022-08-02T12:23:06;95951.34;;;34.47;24.76
37690;BME280;23527;48.150;11.610;2022-08-02T12:26:07;95945.56;;;34.40;25.22
37690;BME280;23527;48.150;11.610;2022-08-02T12:29:10;95951.94;;;34.05;24.56
37690;BME280;23527;48.150;11.610;2022-08-02T12:32:16;95945.97;;;33.72;25.24
37690;BME280;23527;48.150;11.610;2022-08-02T12:35:22;95934.88;;;33.73;24.46
37690;BME280;23527;48.150;11.610;2022-08-02T12:38:29;95934.88;;;33.95;25.50
37690;BME280;23527;48.150;11.610;2022-08-02T12:41:31;95936.63;;;34.00;24.18
37690;BME280;23527;48.150;11.610;2022-08-02T12:44:32;95925.13;;;34.25;23.68
37690;BME280;23527;48.150;11.610;2022-08-02T12:47:32;95925.91;;;34.65;25.15
37690;BME280;23527;48.150;11.610;2022-08-02T12:50:44;95921.84;;;34.94;23.34
37690;BME280;23527;48.150;11.610;2022-08-02T12:53:45;95913.28;;;35.26;24.07
37690;BME280;23527;48.150;11.610;2022-08-02T12:56:45;95915.16;;;35.17;24.17
37690;BME280;23527;48.150;11.610;2022-08-02T12:59:50;95919.75;;;34.91;23.51
37690;BME280;23527;48.150;11.610;2022-08-02T13:02:50;95919.94;;;35.12;25.57
37690;BME280;23527;48.150;11.610;2022-08-02T13:05:51;95917.25;;;35.29;23.49
37690;BME280;23527;48.150;11.610;2022-08-02T13:08:51;95909.59;;;35.48;22.65
37690;BME280;23527;48.150;11.610;2022-08-02T13:11:55;95912.28;;;35.57;21.64
37690;BME280;23527;48.150;11.610;2022-08-02T13:14:55;95900.16;;;35.80;23.73
37690;BME280;23527;48.150;11.610;2022-08-02T13:17:55;95894.16;;;36.04;23.18
37690;BME280;23527;48.150;11.610;2022-08-02T13:20:57;95892.63;;;36.32;22.53
37690;BME280;23527;48.150;11.610;2022-08-02T13:23:57;95894.78;;;36.48;20.85
37690;BME280;23527;48.150;11.610;2022-08-02T13:26:58;95887.06;;;36.20;22.45
37690;BME280;23527;48.150;11.610;2022-08-02T13:29:59;95885.22;;;36.03;21.19
37690;BME280;23527;48.150;11.610;2022-08-02T13:33:00;95881.34;;;36.13;21.68
37690;BME280;23527;48.150;11.610;2022-08-02T13:36:00;95882.25;;;36.34;21.63
37690;BME280;23527;48.150;11.610;2022-08-02T13:39:01;95883.00;;;36.64;20.98
37690;BME280;23527;48.150;11.610;2022-08-02T13:42:03;95879.94;;;36.74;21.45
37690;BME280;23527;48.150;11.610;2022-08-02T13:45:03;95873.22;;;36.93;20.23
37690;BME280;23527;48.150;11.610;2022-08-02T13:48:03;95869.19;;;36.99;20.34
37690;BME280;23527;48.150;11.610;2022-08-02T13:51:04;95867.66;;;37.10;20.78
37690;BME280;23527;48.150;11.610;2022-08-02T13:54:10;95866.69;;;36.94;20.83
37690;BME280;23527;48.150;11.610;2022-08-02T13:57:11;95857.09;;;36.67;21.04
37690;BME280;23527;48.150;11.610;2022-08-02T14:00:11;95850.22;;;36.69;20.84
37690;BME280;23527;48.150;11.610;2022-08-02T14:03:11;95861.47;;;36.59;20.44
37690;BME280;23527;48.150;11.610;2022-08-02T14:06:12;95863.06;;;36.60;20.95
37690;BME280;23527;48.150;11.610;2022-08-02T14:09:12;95861.13;;;36.40;21.08
37690;BME280;23527;48.150;11.610;2022-08-02T14:12:12;95854.19;;;36.51;21.27
37690;BME280;23527;48.150;11.610;2022-08-02T14:15:13;95853.13;;;36.64;22.02
37690;BME280;23527;48.150;11.610;2022-08-02T14:18:13;95844.31;;;36.67;20.78
37690;BME280;23527;48.150;11.610;2022-08-02T14:21:14;95853.63;;;36.37;21.72
37690;BME280;23527;48.150;11.610;2022-08-02T14:24:15;95840.22;;;36.02;22.15
37690;BME280;23527;48.150;11.610;2022-08-02T14:27:15;95843.72;;;35.65;23.59
37690;BME280;23527;48.150;11.610;2022-08-02T14:30:15;95840.00;;;35.69;23.52
37690;BME280;23527;48.150;11.610;2022-08-02T14:33:16;95846.34;;;35.91;22.08
37690;BME280;23527;48.150;11.610;2022-08-02T14:36:17;95835.88;;;35.81;21.53
37690;BME280;23527;48.150;11.610;2022-08-02T14:39:18;95835.41;;;35.61;21.96
37690;BME280;23527;48.150;11.610;2022-08-02T14:42:18;95842.78;;;35.44;21.80
37690;BME280;23527;48.150;11.610;2022-08-02T14:45:19;95838.84;;;35.41;22.03
37690;BME280;23527;48.150;11.610;2022-08-02T14:48:21;95842.34;;;35.24;22.47
37690;BME280;23527;48.150;11.610;2022-08-02T14:51:21;95842.97;;;35.39;22.48
37690;BME280;23527;48.150;11.610;2022-08-02T14:54:21;95840.50;;;35.63;21.57
37690;BME280;23527;48.150;11.610;2022-08-02T14:57:22;95833.59;;;35.83;22.16
37690;BME280;23527;48.150;11.610;2022-08-02T15:00:22;95835.66;;;35.94;20.88
37690;BME280;23527;48.150;11.610;2022-08-02T15:03:23;95835.13;;;36.01;20.42
37690;BME280;23527;48.150;11.610;2022-08-02T15:06:23;95833.16;;;36.10;21.36
37690;BME280;23527;48.150;11.610;2022-08-02T15:09:23;95833.94;;;36.11;20.50
37690;BME280;23527;48.150;11.610;2022-08-02T15:12:23;95835.38;;;36.17;20.23
37690;BME280;23527;48.150;11.610;2022-08-02T15:15:23;95832.97;;;36.15;21.61
37690;BME280;23527;48.150;11.610;2022-08-02T15:18:25;95829.31;;;36.11;20.91
37690;BME280;23527;48.150;11.610;2022-08-02T15:21:25;95832.88;;;36.03;21.03
37690;BME280;23527;48.150;11.610;2022-08-02T15:24:25;95836.09;;;35.96;22.44
37690;BME280;23527;48.150;11.610;2022-08-02T15:27:25;95828.63;;;35.93;20.53
37690;BME280;23527;48.150;11.610;2022-08-02T15:30:25;95834.56;;;35.87;20.74
37690;BME280;23527;48.150;11.610;2022-08-02T15:33:26;95841.28;;;35.72;20.31
37690;BME280;23527;48.150;11.610;2022-08-02T15:36:26;95826.00;;;35.59;19.99
37690;BME280;23527;48.150;11.610;2022-08-02T15:39:26;95828.91;;;35.54;19.58
37690;BME280;23527;48.150;11.610;2022-08-02T15:42:26;95832.91;;;35.48;19.02
37690;BME280;23527;48.150;11.610;2022-08-02T15:45:27;95837.41;;;35.35;20.43
37690;BME280;23527;48.150;11.610;2022-08-02T15:48:27;95832.47;;;35.20;19.56
37690;BME280;23527;48.150;11.610;2022-08-02T15:51:27;95834.22;;;35.07;20.28
37690;BME280;23527;48.150;11.610;2022-08-02T15:54:27;95831.84;;;34.97;20.07
37690;BME280;23527;48.150;11.610;2022-08-02T15:57:28;95833.44;;;34.89;20.13
37690;BME280;23527;48.150;11.610;2022-08-02T16:00:28;95835.34;;;34.80;21.10
37690;BME280;23527;48.150;11.610;2022-08-02T16:03:29;95834.38;;;34.67;21.60
37690;BME280;23527;48.150;11.610;2022-08-02T16:06:30;95828.47;;;34.57;21.50
37690;BME280;23527;48.150;11.610;2022-08-02T16:09:30;95837.53;;;34.44;21.41
37690;BME280;23527;48.150;11.610;2022-08-02T16:12:30;95833.22;;;34.34;20.60